Airfield :







YOU CAN JOIN US ON...

 
LOGIN :

Register | Disclaimer

   EN    FR    IT 

 









Legend :    VFR   Marginal VFR   IFR   Intensive IFR   Very Intensive IFR
Visi :
Ceiling :
>= 8 km
>= 3000ft
5 to 8 km
1000 to 3000 ft
1500m to 5 km
500 to 1000 ft
800 to 1500m
200 to 500 ft
< 800m
< 200 ft
Symbols :   Thunderstorms  Fog  Heavy snow  Heavy precipitations  Wind > 20 kt






- Airport Elevation : 1009 ft
- IATA code : ORH


KORH - Worcester Regional

CURRENT METAR :
  • 150254Z 22021G32KT 10SM FEW017 OVC028 11/08 A2913 RMK AO2 PK WND 22032/0250 SLP868 60001 T01060078 53005

EXPIRED METARs :
  • 150230Z 22020G27KT 10SM BKN015 BKN019 OVC025 11/08 A2913 RMK AO2 PK WND 22029/0210 T01060083
  • 150154Z 22019G25KT 10SM FEW008 BKN014 OVC024 11/10 A2912 RMK AO2 PK WND 21028/0128 SLP863 T01110100
  • 150054Z 20016G28KT 10SM BKN009 OVC012 12/11 A2912 RMK AO2 PK WND 22029/2356 CIG 007V010 SLP863 P0001 T01220111

TAF KORH
Valid from the 15 at 02:00 until the 16 at 00:00 UTC


150216Z 1502/1524 23019G28KT P6SM FEW008 BKN015
FM150700 25016G31KT P6SM BKN020
FM151000 25016G30KT P6SM BKN035
FM151300 26019G37KT P6SM SCT070



MET'MAP, your aeronautical weather chart ! - Copyright ORBIFLY December 2007 - Disclaimer

ORBIFLY MET'MAP TEAM :

Programming & Development : Alexandra Zaïnal
Concept & original design : Baudouin d'Aumeries
Assistance for programming : Marc-Olivier Méhu
Technical & hardware support : Manuel Goepfert

Contact : metmap@orbifly.com




SOURCES & CREDITS :

   NOAA